<?xml version="1.0" encoding="utf-8"?>
<gpx version="1.1" creator="GPS Visualizer https://www.gpsvisualizer.com/; modified by GPX Track Cleaner from GPX Viewer plugin (WordPress) " xmlns="http://www.topografix.com/GPX/1/1" xmlns:xsi="http://www.w3.org/2001/XMLSchema-instance" xsi:schemaLocation="http://www.topografix.com/GPX/1/1 http://www.topografix.com/GPX/1/1/gpx.xsd">

	<trk>
		<name>17_Olloki-Lakarri_DEM</name>
		<cmt> distance: 11.1 km, up: 1130 m, down: 585 m</cmt>
		<desc>1 track points, , elevation data replaced</desc>
		<trkseg>
			<trkpt lat="42.841168" lon="-1.58175">
				<ele>481</ele>
				<time>2021-04-10T17:17:24.001Z</time>
			</trkpt>
			<trkpt lat="42.841348" lon="-1.581579">
				<ele>481</ele>
				<time>2021-04-10T17:17:46.168Z</time>
			</trkpt>
			<trkpt lat="42.841418" lon="-1.581276">
				<ele>481</ele>
				<time>2021-04-10T17:18:09.879Z</time>
			</trkpt>
			<trkpt lat="42.841356" lon="-1.58095">
				<ele>503</ele>
				<time>2021-04-10T17:18:34.672Z</time>
			</trkpt>
			<trkpt lat="42.841194" lon="-1.580765">
				<ele>503</ele>
				<time>2021-04-10T17:18:55.608Z</time>
			</trkpt>
			<trkpt lat="42.841032" lon="-1.580581">
				<ele>503</ele>
				<time>2021-04-10T17:19:16.515Z</time>
			</trkpt>
			<trkpt lat="42.840869" lon="-1.580397">
				<ele>503</ele>
				<time>2021-04-10T17:19:37.497Z</time>
			</trkpt>
			<trkpt lat="42.840707" lon="-1.580213">
				<ele>503</ele>
				<time>2021-04-10T17:19:58.384Z</time>
			</trkpt>
			<trkpt lat="42.8406" lon="-1.579981">
				<ele>503</ele>
				<time>2021-04-10T17:20:18.373Z</time>
			</trkpt>
			<trkpt lat="42.840466" lon="-1.579585">
				<ele>503</ele>
				<time>2021-04-10T17:20:50.33Z</time>
			</trkpt>
			<trkpt lat="42.840332" lon="-1.579189">
				<ele>503</ele>
				<time>2021-04-10T17:21:22.372Z</time>
			</trkpt>
			<trkpt lat="42.840198" lon="-1.578806">
				<ele>545</ele>
				<time>2021-04-10T17:21:53.723Z</time>
			</trkpt>
			<trkpt lat="42.840074" lon="-1.578422">
				<ele>545</ele>
				<time>2021-04-10T17:22:24.778Z</time>
			</trkpt>
			<trkpt lat="42.839981" lon="-1.578038">
				<ele>545</ele>
				<time>2021-04-10T17:22:54.487Z</time>
			</trkpt>
			<trkpt lat="42.839959" lon="-1.577665">
				<ele>545</ele>
				<time>2021-04-10T17:23:22.021Z</time>
			</trkpt>
			<trkpt lat="42.839962" lon="-1.577274">
				<ele>545</ele>
				<time>2021-04-10T17:23:50.754Z</time>
			</trkpt>
			<trkpt lat="42.839965" lon="-1.576883">
				<ele>562</ele>
				<time>2021-04-10T17:24:19.429Z</time>
			</trkpt>
			<trkpt lat="42.839967" lon="-1.576493">
				<ele>562</ele>
				<time>2021-04-10T17:24:47.97Z</time>
			</trkpt>
			<trkpt lat="42.839834" lon="-1.576355">
				<ele>562</ele>
				<time>2021-04-10T17:25:04.768Z</time>
			</trkpt>
			<trkpt lat="42.839638" lon="-1.57623">
				<ele>562</ele>
				<time>2021-04-10T17:25:26.712Z</time>
			</trkpt>
			<trkpt lat="42.839442" lon="-1.576106">
				<ele>515</ele>
				<time>2021-04-10T17:25:48.545Z</time>
			</trkpt>
			<trkpt lat="42.839289" lon="-1.57593">
				<ele>515</ele>
				<time>2021-04-10T17:26:08.537Z</time>
			</trkpt>
			<trkpt lat="42.83917" lon="-1.575711">
				<ele>515</ele>
				<time>2021-04-10T17:26:28.367Z</time>
			</trkpt>
			<trkpt lat="42.839126" lon="-1.575533">
				<ele>515</ele>
				<time>2021-04-10T17:26:42.075Z</time>
			</trkpt>
			<trkpt lat="42.839125" lon="-1.575062">
				<ele>515</ele>
				<time>2021-04-10T17:27:16.73Z</time>
			</trkpt>
			<trkpt lat="42.83913" lon="-1.574591">
				<ele>533</ele>
				<time>2021-04-10T17:27:50.97Z</time>
			</trkpt>
			<trkpt lat="42.838981" lon="-1.574238">
				<ele>533</ele>
				<time>2021-04-10T17:28:20.754Z</time>
			</trkpt>
			<trkpt lat="42.838959" lon="-1.573865">
				<ele>533</ele>
				<time>2021-04-10T17:28:48.036Z</time>
			</trkpt>
			<trkpt lat="42.839046" lon="-1.573717">
				<ele>533</ele>
				<time>2021-04-10T17:29:02.122Z</time>
			</trkpt>
			<trkpt lat="42.839139" lon="-1.573379">
				<ele>533</ele>
				<time>2021-04-10T17:29:28.851Z</time>
			</trkpt>
			<trkpt lat="42.838979" lon="-1.573085">
				<ele>533</ele>
				<time>2021-04-10T17:29:55.45Z</time>
			</trkpt>
			<trkpt lat="42.838818" lon="-1.572787">
				<ele>543</ele>
				<time>2021-04-10T17:30:22.363Z</time>
			</trkpt>
			<trkpt lat="42.838744" lon="-1.572402">
				<ele>543</ele>
				<time>2021-04-10T17:30:51.364Z</time>
			</trkpt>
			<trkpt lat="42.838738" lon="-1.572058">
				<ele>543</ele>
				<time>2021-04-10T17:31:16.502Z</time>
			</trkpt>
			<trkpt lat="42.838619" lon="-1.571932">
				<ele>543</ele>
				<time>2021-04-10T17:31:31.615Z</time>
			</trkpt>
			<trkpt lat="42.838462" lon="-1.571883">
				<ele>543</ele>
				<time>2021-04-10T17:31:48.016Z</time>
			</trkpt>
			<trkpt lat="42.838337" lon="-1.571736">
				<ele>543</ele>
				<time>2021-04-10T17:32:04.545Z</time>
			</trkpt>
			<trkpt lat="42.838159" lon="-1.571489">
				<ele>543</ele>
				<time>2021-04-10T17:32:29.724Z</time>
			</trkpt>
			<trkpt lat="42.838042" lon="-1.571198">
				<ele>543</ele>
				<time>2021-04-10T17:32:53.917Z</time>
			</trkpt>
			<trkpt lat="42.837925" lon="-1.570912">
				<ele>543</ele>
				<time>2021-04-10T17:33:17.771Z</time>
			</trkpt>
			<trkpt lat="42.837808" lon="-1.570638">
				<ele>561</ele>
				<time>2021-04-10T17:33:40.841Z</time>
			</trkpt>
			<trkpt lat="42.837701" lon="-1.570448">
				<ele>561</ele>
				<time>2021-04-10T17:33:58.376Z</time>
			</trkpt>
			<trkpt lat="42.837599" lon="-1.570301">
				<ele>561</ele>
				<time>2021-04-10T17:34:13.204Z</time>
			</trkpt>
			<trkpt lat="42.837554" lon="-1.57011">
				<ele>561</ele>
				<time>2021-04-10T17:34:27.797Z</time>
			</trkpt>
			<trkpt lat="42.837647" lon="-1.569958">
				<ele>561</ele>
				<time>2021-04-10T17:34:42.305Z</time>
			</trkpt>
			<trkpt lat="42.837556" lon="-1.569772">
				<ele>561</ele>
				<time>2021-04-10T17:34:58.936Z</time>
			</trkpt>
			<trkpt lat="42.837465" lon="-1.569586">
				<ele>526</ele>
				<time>2021-04-10T17:35:15.521Z</time>
			</trkpt>
			<trkpt lat="42.837375" lon="-1.5694">
				<ele>526</ele>
				<time>2021-04-10T17:35:32.068Z</time>
			</trkpt>
			<trkpt lat="42.837272" lon="-1.569228">
				<ele>526</ele>
				<time>2021-04-10T17:35:48.573Z</time>
			</trkpt>
			<trkpt lat="42.83732" lon="-1.569005">
				<ele>526</ele>
				<time>2021-04-10T17:36:05.475Z</time>
			</trkpt>
			<trkpt lat="42.837469" lon="-1.568628">
				<ele>524</ele>
				<time>2021-04-10T17:36:36.615Z</time>
			</trkpt>
			<trkpt lat="42.837666" lon="-1.568617">
				<ele>555</ele>
				<time>2021-04-10T17:36:56.358Z</time>
			</trkpt>
			<trkpt lat="42.83787" lon="-1.568407">
				<ele>555</ele>
				<time>2021-04-10T17:37:21.752Z</time>
			</trkpt>
			<trkpt lat="42.838059" lon="-1.568215">
				<ele>555</ele>
				<time>2021-04-10T17:37:45.438Z</time>
			</trkpt>
			<trkpt lat="42.83823" lon="-1.56812">
				<ele>555</ele>
				<time>2021-04-10T17:38:04.123Z</time>
			</trkpt>
			<trkpt lat="42.838402" lon="-1.56803">
				<ele>555</ele>
				<time>2021-04-10T17:38:22.867Z</time>
			</trkpt>
			<trkpt lat="42.838569" lon="-1.568121">
				<ele>555</ele>
				<time>2021-04-10T17:38:40.833Z</time>
			</trkpt>
			<trkpt lat="42.838799" lon="-1.568274">
				<ele>555</ele>
				<time>2021-04-10T17:39:06.325Z</time>
			</trkpt>
			<trkpt lat="42.839026" lon="-1.568389">
				<ele>555</ele>
				<time>2021-04-10T17:39:30.629Z</time>
			</trkpt>
			<trkpt lat="42.839239" lon="-1.568623">
				<ele>555</ele>
				<time>2021-04-10T17:39:57.903Z</time>
			</trkpt>
			<trkpt lat="42.839479" lon="-1.568847">
				<ele>561</ele>
				<time>2021-04-10T17:40:26.884Z</time>
			</trkpt>
			<trkpt lat="42.839719" lon="-1.569">
				<ele>590</ele>
				<time>2021-04-10T17:40:53.325Z</time>
			</trkpt>
			<trkpt lat="42.839933" lon="-1.569078">
				<ele>590</ele>
				<time>2021-04-10T17:41:15.471Z</time>
			</trkpt>
			<trkpt lat="42.840146" lon="-1.569105">
				<ele>590</ele>
				<time>2021-04-10T17:41:37.011Z</time>
			</trkpt>
			<trkpt lat="42.840359" lon="-1.569093">
				<ele>590</ele>
				<time>2021-04-10T17:41:58.612Z</time>
			</trkpt>
			<trkpt lat="42.840575" lon="-1.569095">
				<ele>590</ele>
				<time>2021-04-10T17:42:20.44Z</time>
			</trkpt>
			<trkpt lat="42.840803" lon="-1.569062">
				<ele>590</ele>
				<time>2021-04-10T17:42:43.687Z</time>
			</trkpt>
			<trkpt lat="42.841063" lon="-1.568881">
				<ele>590</ele>
				<time>2021-04-10T17:43:13.133Z</time>
			</trkpt>
			<trkpt lat="42.841267" lon="-1.568946">
				<ele>590</ele>
				<time>2021-04-10T17:43:34.096Z</time>
			</trkpt>
			<trkpt lat="42.841481" lon="-1.569019">
				<ele>590</ele>
				<time>2021-04-10T17:43:56.243Z</time>
			</trkpt>
			<trkpt lat="42.84165" lon="-1.568992">
				<ele>590</ele>
				<time>2021-04-10T17:44:13.325Z</time>
			</trkpt>
			<trkpt lat="42.841806" lon="-1.568914">
				<ele>643</ele>
				<time>2021-04-10T17:44:29.99Z</time>
			</trkpt>
			<trkpt lat="42.84194" lon="-1.568808">
				<ele>643</ele>
				<time>2021-04-10T17:44:45.524Z</time>
			</trkpt>
			<trkpt lat="42.842074" lon="-1.568735">
				<ele>633</ele>
				<time>2021-04-10T17:45:00.038Z</time>
			</trkpt>
			<trkpt lat="42.842208" lon="-1.568662">
				<ele>633</ele>
				<time>2021-04-10T17:45:14.598Z</time>
			</trkpt>
			<trkpt lat="42.842346" lon="-1.56861">
				<ele>633</ele>
				<time>2021-04-10T17:45:29.088Z</time>
			</trkpt>
			<trkpt lat="42.842449" lon="-1.568517">
				<ele>633</ele>
				<time>2021-04-10T17:45:41.529Z</time>
			</trkpt>
			<trkpt lat="42.842578" lon="-1.568318">
				<ele>633</ele>
				<time>2021-04-10T17:46:01.274Z</time>
			</trkpt>
			<trkpt lat="42.842649" lon="-1.568116">
				<ele>633</ele>
				<time>2021-04-10T17:46:18.341Z</time>
			</trkpt>
			<trkpt lat="42.84272" lon="-1.567913">
				<ele>633</ele>
				<time>2021-04-10T17:46:35.498Z</time>
			</trkpt>
			<trkpt lat="42.842809" lon="-1.567761">
				<ele>633</ele>
				<time>2021-04-10T17:46:50.504Z</time>
			</trkpt>
			<trkpt lat="42.842928" lon="-1.56771">
				<ele>633</ele>
				<time>2021-04-10T17:47:03.824Z</time>
			</trkpt>
			<trkpt lat="42.843059" lon="-1.567844">
				<ele>633</ele>
				<time>2021-04-10T17:47:20.347Z</time>
			</trkpt>
			<trkpt lat="42.843162" lon="-1.568043">
				<ele>633</ele>
				<time>2021-04-10T17:47:38.117Z</time>
			</trkpt>
			<trkpt lat="42.843309" lon="-1.568231">
				<ele>633</ele>
				<time>2021-04-10T17:47:58.379Z</time>
			</trkpt>
			<trkpt lat="42.843441" lon="-1.568484">
				<ele>633</ele>
				<time>2021-04-10T17:48:20.985Z</time>
			</trkpt>
			<trkpt lat="42.843574" lon="-1.568753">
				<ele>643</ele>
				<time>2021-04-10T17:48:44.67Z</time>
			</trkpt>
			<trkpt lat="42.843606" lon="-1.568987">
				<ele>643</ele>
				<time>2021-04-10T17:49:02.135Z</time>
			</trkpt>
			<trkpt lat="42.843614" lon="-1.569267">
				<ele>643</ele>
				<time>2021-04-10T17:49:22.708Z</time>
			</trkpt>
			<trkpt lat="42.843584" lon="-1.569452">
				<ele>643</ele>
				<time>2021-04-10T17:49:36.616Z</time>
			</trkpt>
			<trkpt lat="42.843488" lon="-1.569583">
				<ele>643</ele>
				<time>2021-04-10T17:49:50.108Z</time>
			</trkpt>
			<trkpt lat="42.843472" lon="-1.569674">
				<ele>643</ele>
				<time>2021-04-10T17:49:56.951Z</time>
			</trkpt>
			<trkpt lat="42.843508" lon="-1.569739">
				<ele>643</ele>
				<time>2021-04-10T17:50:02.935Z</time>
			</trkpt>
			<trkpt lat="42.843545" lon="-1.569803">
				<ele>643</ele>
				<time>2021-04-10T17:50:08.933Z</time>
			</trkpt>
			<trkpt lat="42.843581" lon="-1.569868">
				<ele>643</ele>
				<time>2021-04-10T17:50:14.931Z</time>
			</trkpt>
			<trkpt lat="42.843671" lon="-1.569919">
				<ele>643</ele>
				<time>2021-04-10T17:50:24.697Z</time>
			</trkpt>
			<trkpt lat="42.843689" lon="-1.569974">
				<ele>643</ele>
				<time>2021-04-10T17:50:29.16Z</time>
			</trkpt>
			<trkpt lat="42.843678" lon="-1.570062">
				<ele>643</ele>
				<time>2021-04-10T17:50:35.701Z</time>
			</trkpt>
			<trkpt lat="42.84376" lon="-1.570125">
				<ele>662</ele>
				<time>2021-04-10T17:50:45.192Z</time>
			</trkpt>
			<trkpt lat="42.843831" lon="-1.569973">
				<ele>662</ele>
				<time>2021-04-10T17:50:58.327Z</time>
			</trkpt>
			<trkpt lat="42.843965" lon="-1.569849">
				<ele>662</ele>
				<time>2021-04-10T17:51:14.382Z</time>
			</trkpt>
			<trkpt lat="42.844058" lon="-1.569726">
				<ele>662</ele>
				<time>2021-04-10T17:51:27.318Z</time>
			</trkpt>
			<trkpt lat="42.844156" lon="-1.569617">
				<ele>662</ele>
				<time>2021-04-10T17:51:39.934Z</time>
			</trkpt>
			<trkpt lat="42.844334" lon="-1.569475">
				<ele>662</ele>
				<time>2021-04-10T17:52:00.604Z</time>
			</trkpt>
			<trkpt lat="42.844528" lon="-1.569325">
				<ele>662</ele>
				<time>2021-04-10T17:52:23.045Z</time>
			</trkpt>
			<trkpt lat="42.844731" lon="-1.569004">
				<ele>662</ele>
				<time>2021-04-10T17:52:54.046Z</time>
			</trkpt>
			<trkpt lat="42.844834" lon="-1.568728">
				<ele>692</ele>
				<time>2021-04-10T17:53:16.678Z</time>
			</trkpt>
			<trkpt lat="42.844931" lon="-1.568311">
				<ele>692</ele>
				<time>2021-04-10T17:53:48.545Z</time>
			</trkpt>
			<trkpt lat="42.84495" lon="-1.567952">
				<ele>692</ele>
				<time>2021-04-10T17:54:15.143Z</time>
			</trkpt>
			<trkpt lat="42.845002" lon="-1.567358">
				<ele>692</ele>
				<time>2021-04-10T17:54:59.498Z</time>
			</trkpt>
			<trkpt lat="42.845069" lon="-1.567012">
				<ele>692</ele>
				<time>2021-04-10T17:55:26.405Z</time>
			</trkpt>
			<trkpt lat="42.845173" lon="-1.566724">
				<ele>692</ele>
				<time>2021-04-10T17:55:50.25Z</time>
			</trkpt>
			<trkpt lat="42.845355" lon="-1.566599">
				<ele>714</ele>
				<time>2021-04-10T17:56:10.468Z</time>
			</trkpt>
			<trkpt lat="42.845589" lon="-1.56627">
				<ele>714</ele>
				<time>2021-04-10T17:56:43.814Z</time>
			</trkpt>
			<trkpt lat="42.845842" lon="-1.565992">
				<ele>669</ele>
				<time>2021-04-10T17:57:16.101Z</time>
			</trkpt>
			<trkpt lat="42.846014" lon="-1.565587">
				<ele>669</ele>
				<time>2021-04-10T17:57:50.368Z</time>
			</trkpt>
			<trkpt lat="42.846259" lon="-1.565241">
				<ele>669</ele>
				<time>2021-04-10T17:58:25.426Z</time>
			</trkpt>
			<trkpt lat="42.846509" lon="-1.564873">
				<ele>669</ele>
				<time>2021-04-10T17:59:02.083Z</time>
			</trkpt>
			<trkpt lat="42.846759" lon="-1.56455">
				<ele>722</ele>
				<time>2021-04-10T17:59:36.289Z</time>
			</trkpt>
			<trkpt lat="42.84702" lon="-1.564474">
				<ele>722</ele>
				<time>2021-04-10T18:00:03.196Z</time>
			</trkpt>
			<trkpt lat="42.847286" lon="-1.564127">
				<ele>722</ele>
				<time>2021-04-10T18:00:39.783Z</time>
			</trkpt>
			<trkpt lat="42.847265" lon="-1.563034">
				<ele>722</ele>
				<time>2021-04-10T18:02:01.977Z</time>
			</trkpt>
			<trkpt lat="42.847485" lon="-1.562661">
				<ele>722</ele>
				<time>2021-04-10T18:02:36.965Z</time>
			</trkpt>
			<trkpt lat="42.847784" lon="-1.56227">
				<ele>758</ele>
				<time>2021-04-10T18:03:18.091Z</time>
			</trkpt>
			<trkpt lat="42.848091" lon="-1.561872">
				<ele>695</ele>
				<time>2021-04-10T18:04:00.631Z</time>
			</trkpt>
			<trkpt lat="42.848217" lon="-1.561255">
				<ele>695</ele>
				<time>2021-04-10T18:04:47.178Z</time>
			</trkpt>
			<trkpt lat="42.848282" lon="-1.560694">
				<ele>695</ele>
				<time>2021-04-10T18:05:28.511Z</time>
			</trkpt>
			<trkpt lat="42.848476" lon="-1.560282">
				<ele>718</ele>
				<time>2021-04-10T18:06:04.398Z</time>
			</trkpt>
			<trkpt lat="42.848666" lon="-1.55995">
				<ele>718</ele>
				<time>2021-04-10T18:06:35.506Z</time>
			</trkpt>
			<trkpt lat="42.848874" lon="-1.559622">
				<ele>718</ele>
				<time>2021-04-10T18:07:07.8Z</time>
			</trkpt>
			<trkpt lat="42.849055" lon="-1.559396">
				<ele>718</ele>
				<time>2021-04-10T18:07:32.743Z</time>
			</trkpt>
			<trkpt lat="42.849237" lon="-1.559206">
				<ele>718</ele>
				<time>2021-04-10T18:07:56.102Z</time>
			</trkpt>
			<trkpt lat="42.849446" lon="-1.558912">
				<ele>718</ele>
				<time>2021-04-10T18:08:27.018Z</time>
			</trkpt>
			<trkpt lat="42.849746" lon="-1.558872">
				<ele>718</ele>
				<time>2021-04-10T18:08:56.985Z</time>
			</trkpt>
			<trkpt lat="42.850143" lon="-1.558819">
				<ele>719</ele>
				<time>2021-04-10T18:09:36.485Z</time>
			</trkpt>
			<trkpt lat="42.850471" lon="-1.558757">
				<ele>719</ele>
				<time>2021-04-10T18:10:09.5Z</time>
			</trkpt>
			<trkpt lat="42.850899" lon="-1.5589">
				<ele>719</ele>
				<time>2021-04-10T18:10:53.86Z</time>
			</trkpt>
			<trkpt lat="42.851225" lon="-1.55895">
				<ele>719</ele>
				<time>2021-04-10T18:11:27.412Z</time>
			</trkpt>
			<trkpt lat="42.851384" lon="-1.558584">
				<ele>719</ele>
				<time>2021-04-10T18:11:58.38Z</time>
			</trkpt>
			<trkpt lat="42.851535" lon="-1.558005">
				<ele>763</ele>
				<time>2021-04-10T18:12:43.043Z</time>
			</trkpt>
			<trkpt lat="42.851735" lon="-1.557593">
				<ele>763</ele>
				<time>2021-04-10T18:13:18.952Z</time>
			</trkpt>
			<trkpt lat="42.851937" lon="-1.557097">
				<ele>763</ele>
				<time>2021-04-10T18:14:00.864Z</time>
			</trkpt>
			<trkpt lat="42.852142" lon="-1.556781">
				<ele>713</ele>
				<time>2021-04-10T18:14:32.155Z</time>
			</trkpt>
			<trkpt lat="42.852357" lon="-1.556627">
				<ele>713</ele>
				<time>2021-04-10T18:14:56.548Z</time>
			</trkpt>
			<trkpt lat="42.852557" lon="-1.55663">
				<ele>713</ele>
				<time>2021-04-10T18:15:16.416Z</time>
			</trkpt>
			<trkpt lat="42.852767" lon="-1.556724">
				<ele>713</ele>
				<time>2021-04-10T18:15:38.309Z</time>
			</trkpt>
			<trkpt lat="42.853034" lon="-1.556771">
				<ele>713</ele>
				<time>2021-04-10T18:16:05.055Z</time>
			</trkpt>
			<trkpt lat="42.853301" lon="-1.556818">
				<ele>713</ele>
				<time>2021-04-10T18:16:31.798Z</time>
			</trkpt>
			<trkpt lat="42.853577" lon="-1.55687">
				<ele>713</ele>
				<time>2021-04-10T18:16:59.421Z</time>
			</trkpt>
			<trkpt lat="42.853944" lon="-1.556971">
				<ele>713</ele>
				<time>2021-04-10T18:17:36.551Z</time>
			</trkpt>
			<trkpt lat="42.854227" lon="-1.557035">
				<ele>728</ele>
				<time>2021-04-10T18:18:05.078Z</time>
			</trkpt>
			<trkpt lat="42.854252" lon="-1.556869">
				<ele>728</ele>
				<time>2021-04-10T18:18:17.407Z</time>
			</trkpt>
			<trkpt lat="42.854152" lon="-1.556599">
				<ele>713</ele>
				<time>2021-04-10T18:18:39.641Z</time>
			</trkpt>
			<trkpt lat="42.853961" lon="-1.556336">
				<ele>713</ele>
				<time>2021-04-10T18:19:06.539Z</time>
			</trkpt>
			<trkpt lat="42.853795" lon="-1.556124">
				<ele>748</ele>
				<time>2021-04-10T18:19:29.191Z</time>
			</trkpt>
			<trkpt lat="42.853539" lon="-1.556026">
				<ele>748</ele>
				<time>2021-04-10T18:19:56.041Z</time>
			</trkpt>
			<trkpt lat="42.853268" lon="-1.555951">
				<ele>748</ele>
				<time>2021-04-10T18:20:23.857Z</time>
			</trkpt>
			<trkpt lat="42.8529" lon="-1.555788">
				<ele>748</ele>
				<time>2021-04-10T18:21:02.206Z</time>
			</trkpt>
			<trkpt lat="42.852602" lon="-1.555545">
				<ele>748</ele>
				<time>2021-04-10T18:21:36.642Z</time>
			</trkpt>
			<trkpt lat="42.852232" lon="-1.555242">
				<ele>748</ele>
				<time>2021-04-10T18:22:19.532Z</time>
			</trkpt>
			<trkpt lat="42.851766" lon="-1.555235">
				<ele>756</ele>
				<time>2021-04-10T18:23:06.039Z</time>
			</trkpt>
			<trkpt lat="42.851421" lon="-1.555104">
				<ele>756</ele>
				<time>2021-04-10T18:23:41.552Z</time>
			</trkpt>
			<trkpt lat="42.851134" lon="-1.554832">
				<ele>756</ele>
				<time>2021-04-10T18:24:16.644Z</time>
			</trkpt>
			<trkpt lat="42.850896" lon="-1.554448">
				<ele>756</ele>
				<time>2021-04-10T18:24:54.594Z</time>
			</trkpt>
			<trkpt lat="42.85063" lon="-1.554142">
				<ele>716</ele>
				<time>2021-04-10T18:25:29.268Z</time>
			</trkpt>
			<trkpt lat="42.850404" lon="-1.553785">
				<ele>716</ele>
				<time>2021-04-10T18:26:03.583Z</time>
			</trkpt>
			<trkpt lat="42.850297" lon="-1.553662">
				<ele>716</ele>
				<time>2021-04-10T18:26:17.533Z</time>
			</trkpt>
			<trkpt lat="42.850302" lon="-1.55349">
				<ele>716</ele>
				<time>2021-04-10T18:26:30.154Z</time>
			</trkpt>
			<trkpt lat="42.850326" lon="-1.553407">
				<ele>716</ele>
				<time>2021-04-10T18:26:36.765Z</time>
			</trkpt>
			<trkpt lat="42.850506" lon="-1.553027">
				<ele>716</ele>
				<time>2021-04-10T18:27:09.942Z</time>
			</trkpt>
			<trkpt lat="42.850745" lon="-1.552284">
				<ele>716</ele>
				<time>2021-04-10T18:28:09.078Z</time>
			</trkpt>
			<trkpt lat="42.850757" lon="-1.551196">
				<ele>721</ele>
				<time>2021-04-10T18:29:28.324Z</time>
			</trkpt>
			<trkpt lat="42.850824" lon="-1.550912">
				<ele>721</ele>
				<time>2021-04-10T18:29:50.073Z</time>
			</trkpt>
			<trkpt lat="42.850968" lon="-1.550628">
				<ele>721</ele>
				<time>2021-04-10T18:30:15.306Z</time>
			</trkpt>
			<trkpt lat="42.851088" lon="-1.550457">
				<ele>721</ele>
				<time>2021-04-10T18:30:32.678Z</time>
			</trkpt>
			<trkpt lat="42.851104" lon="-1.55041">
				<ele>721</ele>
				<time>2021-04-10T18:30:36.497Z</time>
			</trkpt>
			<trkpt lat="42.851121" lon="-1.550393">
				<ele>721</ele>
				<time>2021-04-10T18:30:38.588Z</time>
			</trkpt>
			<trkpt lat="42.851402" lon="-1.550075">
				<ele>721</ele>
				<time>2021-04-10T18:31:15.184Z</time>
			</trkpt>
			<trkpt lat="42.853055" lon="-1.54881">
				<ele>746</ele>
				<time>2021-04-10T18:34:23.657Z</time>
			</trkpt>
			<trkpt lat="42.85409" lon="-1.548387">
				<ele>746</ele>
				<time>2021-04-10T18:36:11.245Z</time>
			</trkpt>
			<trkpt lat="42.854362" lon="-1.548159">
				<ele>704</ele>
				<time>2021-04-10T18:36:42.925Z</time>
			</trkpt>
			<trkpt lat="42.85484" lon="-1.54773">
				<ele>762</ele>
				<time>2021-04-10T18:37:39.654Z</time>
			</trkpt>
			<trkpt lat="42.855326" lon="-1.547029">
				<ele>762</ele>
				<time>2021-04-10T18:38:49.857Z</time>
			</trkpt>
			<trkpt lat="42.855787" lon="-1.545633">
				<ele>733</ele>
				<time>2021-04-10T18:40:41.117Z</time>
			</trkpt>
			<trkpt lat="42.856063" lon="-1.544928">
				<ele>733</ele>
				<time>2021-04-10T18:41:39.325Z</time>
			</trkpt>
			<trkpt lat="42.856356" lon="-1.544634">
				<ele>738</ele>
				<time>2021-04-10T18:42:15.615Z</time>
			</trkpt>
			<trkpt lat="42.856532" lon="-1.544414">
				<ele>738</ele>
				<time>2021-04-10T18:42:39.854Z</time>
			</trkpt>
			<trkpt lat="42.856519" lon="-1.544402">
				<ele>738</ele>
				<time>2021-04-10T18:42:41.439Z</time>
			</trkpt>
			<trkpt lat="42.856527" lon="-1.544173">
				<ele>738</ele>
				<time>2021-04-10T18:42:59.155Z</time>
			</trkpt>
			<trkpt lat="42.856546" lon="-1.543989">
				<ele>738</ele>
				<time>2021-04-10T18:43:13.13Z</time>
			</trkpt>
			<trkpt lat="42.856598" lon="-1.543791">
				<ele>738</ele>
				<time>2021-04-10T18:43:29.025Z</time>
			</trkpt>
			<trkpt lat="42.85663" lon="-1.543666">
				<ele>777</ele>
				<time>2021-04-10T18:43:39.004Z</time>
			</trkpt>
			<trkpt lat="42.856636" lon="-1.54357">
				<ele>777</ele>
				<time>2021-04-10T18:43:46.247Z</time>
			</trkpt>
			<trkpt lat="42.856688" lon="-1.543323">
				<ele>777</ele>
				<time>2021-04-10T18:44:05.572Z</time>
			</trkpt>
			<trkpt lat="42.856747" lon="-1.543026">
				<ele>777</ele>
				<time>2021-04-10T18:44:28.211Z</time>
			</trkpt>
			<trkpt lat="42.85683" lon="-1.542758">
				<ele>777</ele>
				<time>2021-04-10T18:44:49.6Z</time>
			</trkpt>
			<trkpt lat="42.856899" lon="-1.542402">
				<ele>777</ele>
				<time>2021-04-10T18:45:16.782Z</time>
			</trkpt>
			<trkpt lat="42.856955" lon="-1.542052">
				<ele>777</ele>
				<time>2021-04-10T18:45:43.16Z</time>
			</trkpt>
			<trkpt lat="42.857002" lon="-1.541705">
				<ele>777</ele>
				<time>2021-04-10T18:46:09.213Z</time>
			</trkpt>
			<trkpt lat="42.857032" lon="-1.541391">
				<ele>787</ele>
				<time>2021-04-10T18:46:32.284Z</time>
			</trkpt>
			<trkpt lat="42.857102" lon="-1.541055">
				<ele>787</ele>
				<time>2021-04-10T18:46:57.707Z</time>
			</trkpt>
			<trkpt lat="42.857206" lon="-1.540819">
				<ele>787</ele>
				<time>2021-04-10T18:47:17.748Z</time>
			</trkpt>
			<trkpt lat="42.857354" lon="-1.540869">
				<ele>787</ele>
				<time>2021-04-10T18:47:32.878Z</time>
			</trkpt>
			<trkpt lat="42.857538" lon="-1.541133">
				<ele>787</ele>
				<time>2021-04-10T18:47:59.363Z</time>
			</trkpt>
			<trkpt lat="42.857761" lon="-1.541317">
				<ele>787</ele>
				<time>2021-04-10T18:48:25.241Z</time>
			</trkpt>
			<trkpt lat="42.858029" lon="-1.54127">
				<ele>787</ele>
				<time>2021-04-10T18:48:52.018Z</time>
			</trkpt>
			<trkpt lat="42.858262" lon="-1.541058">
				<ele>787</ele>
				<time>2021-04-10T18:49:19.942Z</time>
			</trkpt>
			<trkpt lat="42.858366" lon="-1.540945">
				<ele>808</ele>
				<time>2021-04-10T18:49:33.365Z</time>
			</trkpt>
			<trkpt lat="42.858903" lon="-1.540871">
				<ele>808</ele>
				<time>2021-04-10T18:50:28.326Z</time>
			</trkpt>
			<trkpt lat="42.859067" lon="-1.540735">
				<ele>808</ele>
				<time>2021-04-10T18:50:47.578Z</time>
			</trkpt>
			<trkpt lat="42.859366" lon="-1.540531">
				<ele>808</ele>
				<time>2021-04-10T18:51:21.034Z</time>
			</trkpt>
			<trkpt lat="42.859999" lon="-1.540091">
				<ele>808</ele>
				<time>2021-04-10T18:52:33.703Z</time>
			</trkpt>
			<trkpt lat="42.860329" lon="-1.539229">
				<ele>763</ele>
				<time>2021-04-10T18:53:44.339Z</time>
			</trkpt>
			<trkpt lat="42.860485" lon="-1.538589">
				<ele>846</ele>
				<time>2021-04-10T18:54:33.581Z</time>
			</trkpt>
			<trkpt lat="42.860495" lon="-1.538513">
				<ele>846</ele>
				<time>2021-04-10T18:54:39.245Z</time>
			</trkpt>
			<trkpt lat="42.860592" lon="-1.538383">
				<ele>846</ele>
				<time>2021-04-10T18:54:52.722Z</time>
			</trkpt>
			<trkpt lat="42.860864" lon="-1.538096">
				<ele>846</ele>
				<time>2021-04-10T18:55:26.819Z</time>
			</trkpt>
			<trkpt lat="42.861282" lon="-1.538">
				<ele>846</ele>
				<time>2021-04-10T18:56:08.817Z</time>
			</trkpt>
			<trkpt lat="42.861752" lon="-1.537742">
				<ele>846</ele>
				<time>2021-04-10T18:56:59.022Z</time>
			</trkpt>
			<trkpt lat="42.862028" lon="-1.537332">
				<ele>786</ele>
				<time>2021-04-10T18:57:39.496Z</time>
			</trkpt>
			<trkpt lat="42.862307" lon="-1.537279">
				<ele>786</ele>
				<time>2021-04-10T18:58:07.471Z</time>
			</trkpt>
			<trkpt lat="42.862529" lon="-1.537345">
				<ele>835</ele>
				<time>2021-04-10T18:58:30.189Z</time>
			</trkpt>
			<trkpt lat="42.862761" lon="-1.537321">
				<ele>835</ele>
				<time>2021-04-10T18:58:54.647Z</time>
			</trkpt>
			<trkpt lat="42.862797" lon="-1.537282">
				<ele>835</ele>
				<time>2021-04-10T18:58:59.306Z</time>
			</trkpt>
			<trkpt lat="42.862979" lon="-1.537071">
				<ele>835</ele>
				<time>2021-04-10T18:59:23.307Z</time>
			</trkpt>
			<trkpt lat="42.863154" lon="-1.53682">
				<ele>835</ele>
				<time>2021-04-10T18:59:48.789Z</time>
			</trkpt>
			<trkpt lat="42.863174" lon="-1.536413">
				<ele>835</ele>
				<time>2021-04-10T19:00:18.421Z</time>
			</trkpt>
			<trkpt lat="42.863102" lon="-1.535649">
				<ele>835</ele>
				<time>2021-04-10T19:01:14.408Z</time>
			</trkpt>
			<trkpt lat="42.862979" lon="-1.535109">
				<ele>823</ele>
				<time>2021-04-10T19:01:55.566Z</time>
			</trkpt>
			<trkpt lat="42.862884" lon="-1.534713">
				<ele>823</ele>
				<time>2021-04-10T19:02:26.128Z</time>
			</trkpt>
			<trkpt lat="42.862806" lon="-1.534284">
				<ele>823</ele>
				<time>2021-04-10T19:02:58.502Z</time>
			</trkpt>
			<trkpt lat="42.862845" lon="-1.53368">
				<ele>823</ele>
				<time>2021-04-10T19:03:42.592Z</time>
			</trkpt>
			<trkpt lat="42.863" lon="-1.533483">
				<ele>823</ele>
				<time>2021-04-10T19:04:04.337Z</time>
			</trkpt>
			<trkpt lat="42.863106" lon="-1.533129">
				<ele>847</ele>
				<time>2021-04-10T19:04:32.198Z</time>
			</trkpt>
			<trkpt lat="42.863202" lon="-1.532493">
				<ele>847</ele>
				<time>2021-04-10T19:05:19.377Z</time>
			</trkpt>
			<trkpt lat="42.863207" lon="-1.532023">
				<ele>847</ele>
				<time>2021-04-10T19:05:53.565Z</time>
			</trkpt>
			<trkpt lat="42.863256" lon="-1.531515">
				<ele>847</ele>
				<time>2021-04-10T19:06:30.788Z</time>
			</trkpt>
			<trkpt lat="42.863601" lon="-1.529886">
				<ele>852</ele>
				<time>2021-04-10T19:08:34.051Z</time>
			</trkpt>
			<trkpt lat="42.863607" lon="-1.529499">
				<ele>852</ele>
				<time>2021-04-10T19:09:02.653Z</time>
			</trkpt>
			<trkpt lat="42.863594" lon="-1.52899">
				<ele>876</ele>
				<time>2021-04-10T19:09:40.559Z</time>
			</trkpt>
			<trkpt lat="42.863641" lon="-1.528584">
				<ele>876</ele>
				<time>2021-04-10T19:10:10.81Z</time>
			</trkpt>
			<trkpt lat="42.863606" lon="-1.528346">
				<ele>876</ele>
				<time>2021-04-10T19:10:29.424Z</time>
			</trkpt>
			<trkpt lat="42.863616" lon="-1.528112">
				<ele>876</ele>
				<time>2021-04-10T19:10:46.516Z</time>
			</trkpt>
			<trkpt lat="42.863614" lon="-1.527824">
				<ele>876</ele>
				<time>2021-04-10T19:11:07.551Z</time>
			</trkpt>
			<trkpt lat="42.863635" lon="-1.527318">
				<ele>876</ele>
				<time>2021-04-10T19:11:44.495Z</time>
			</trkpt>
			<trkpt lat="42.863709" lon="-1.526761">
				<ele>883</ele>
				<time>2021-04-10T19:12:25.655Z</time>
			</trkpt>
			<trkpt lat="42.863805" lon="-1.526157">
				<ele>883</ele>
				<time>2021-04-10T19:13:10.675Z</time>
			</trkpt>
			<trkpt lat="42.863865" lon="-1.525647">
				<ele>883</ele>
				<time>2021-04-10T19:13:48.571Z</time>
			</trkpt>
			<trkpt lat="42.863997" lon="-1.525136">
				<ele>883</ele>
				<time>2021-04-10T19:14:28.422Z</time>
			</trkpt>
			<trkpt lat="42.864269" lon="-1.52427">
				<ele>908</ele>
				<time>2021-04-10T19:15:38.788Z</time>
			</trkpt>
			<trkpt lat="42.864426" lon="-1.523979">
				<ele>908</ele>
				<time>2021-04-10T19:16:05.295Z</time>
			</trkpt>
			<trkpt lat="42.864531" lon="-1.523664">
				<ele>908</ele>
				<time>2021-04-10T19:16:30.603Z</time>
			</trkpt>
			<trkpt lat="42.864587" lon="-1.523483">
				<ele>893</ele>
				<time>2021-04-10T19:16:44.967Z</time>
			</trkpt>
			<trkpt lat="42.864766" lon="-1.523034">
				<ele>893</ele>
				<time>2021-04-10T19:17:22.111Z</time>
			</trkpt>
			<trkpt lat="42.865217" lon="-1.522406">
				<ele>911</ele>
				<time>2021-04-10T19:18:26.043Z</time>
			</trkpt>
			<trkpt lat="42.865239" lon="-1.522245">
				<ele>911</ele>
				<time>2021-04-10T19:18:38.021Z</time>
			</trkpt>
			<trkpt lat="42.865305" lon="-1.522039">
				<ele>911</ele>
				<time>2021-04-10T19:18:54.466Z</time>
			</trkpt>
			<trkpt lat="42.865504" lon="-1.521785">
				<ele>911</ele>
				<time>2021-04-10T19:19:21.5Z</time>
			</trkpt>
			<trkpt lat="42.865504" lon="-1.521656">
				<ele>911</ele>
				<time>2021-04-10T19:19:31.034Z</time>
			</trkpt>
			<trkpt lat="42.865478" lon="-1.521545">
				<ele>911</ele>
				<time>2021-04-10T19:19:39.684Z</time>
			</trkpt>
			<trkpt lat="42.865477" lon="-1.52142">
				<ele>911</ele>
				<time>2021-04-10T19:19:48.9Z</time>
			</trkpt>
			<trkpt lat="42.865488" lon="-1.521285">
				<ele>911</ele>
				<time>2021-04-10T19:19:58.886Z</time>
			</trkpt>
			<trkpt lat="42.865515" lon="-1.521157">
				<ele>911</ele>
				<time>2021-04-10T19:20:08.679Z</time>
			</trkpt>
			<trkpt lat="42.865515" lon="-1.521018">
				<ele>911</ele>
				<time>2021-04-10T19:20:18.911Z</time>
			</trkpt>
			<trkpt lat="42.865487" lon="-1.520902">
				<ele>911</ele>
				<time>2021-04-10T19:20:27.924Z</time>
			</trkpt>
			<trkpt lat="42.86544" lon="-1.520797">
				<ele>919</ele>
				<time>2021-04-10T19:20:36.974Z</time>
			</trkpt>
			<trkpt lat="42.865408" lon="-1.520672">
				<ele>919</ele>
				<time>2021-04-10T19:20:46.715Z</time>
			</trkpt>
			<trkpt lat="42.865408" lon="-1.520548">
				<ele>919</ele>
				<time>2021-04-10T19:20:55.855Z</time>
			</trkpt>
			<trkpt lat="42.865418" lon="-1.52041">
				<ele>919</ele>
				<time>2021-04-10T19:21:06.044Z</time>
			</trkpt>
			<trkpt lat="42.86542" lon="-1.520285">
				<ele>919</ele>
				<time>2021-04-10T19:21:15.261Z</time>
			</trkpt>
			<trkpt lat="42.865407" lon="-1.520152">
				<ele>919</ele>
				<time>2021-04-10T19:21:25.114Z</time>
			</trkpt>
			<trkpt lat="42.865414" lon="-1.520002">
				<ele>919</ele>
				<time>2021-04-10T19:21:36.198Z</time>
			</trkpt>
			<trkpt lat="42.865392" lon="-1.51974">
				<ele>919</ele>
				<time>2021-04-10T19:21:55.517Z</time>
			</trkpt>
			<trkpt lat="42.865382" lon="-1.519612">
				<ele>919</ele>
				<time>2021-04-10T19:22:04.924Z</time>
			</trkpt>
			<trkpt lat="42.865372" lon="-1.519485">
				<ele>919</ele>
				<time>2021-04-10T19:22:14.287Z</time>
			</trkpt>
			<trkpt lat="42.865363" lon="-1.519358">
				<ele>919</ele>
				<time>2021-04-10T19:22:23.625Z</time>
			</trkpt>
			<trkpt lat="42.865352" lon="-1.51922">
				<ele>919</ele>
				<time>2021-04-10T19:22:33.797Z</time>
			</trkpt>
			<trkpt lat="42.865337" lon="-1.519093">
				<ele>919</ele>
				<time>2021-04-10T19:22:43.181Z</time>
			</trkpt>
			<trkpt lat="42.865317" lon="-1.51897">
				<ele>919</ele>
				<time>2021-04-10T19:22:52.377Z</time>
			</trkpt>
			<trkpt lat="42.865297" lon="-1.518842">
				<ele>919</ele>
				<time>2021-04-10T19:23:01.926Z</time>
			</trkpt>
			<trkpt lat="42.865252" lon="-1.518595">
				<ele>930</ele>
				<time>2021-04-10T19:23:20.463Z</time>
			</trkpt>
			<trkpt lat="42.865245" lon="-1.518467">
				<ele>930</ele>
				<time>2021-04-10T19:23:29.831Z</time>
			</trkpt>
			<trkpt lat="42.865238" lon="-1.518328">
				<ele>930</ele>
				<time>2021-04-10T19:23:39.998Z</time>
			</trkpt>
			<trkpt lat="42.865192" lon="-1.518207">
				<ele>930</ele>
				<time>2021-04-10T19:23:49.91Z</time>
			</trkpt>
			<trkpt lat="42.865163" lon="-1.518134">
				<ele>930</ele>
				<time>2021-04-10T19:23:55.94Z</time>
			</trkpt>
			<trkpt lat="42.865137" lon="-1.518092">
				<ele>930</ele>
				<time>2021-04-10T19:23:59.933Z</time>
			</trkpt>
			<trkpt lat="42.865142" lon="-1.518028">
				<ele>930</ele>
				<time>2021-04-10T19:24:04.61Z</time>
			</trkpt>
			<trkpt lat="42.86521" lon="-1.517932">
				<ele>930</ele>
				<time>2021-04-10T19:24:14.452Z</time>
			</trkpt>
			<trkpt lat="42.865287" lon="-1.517863">
				<ele>930</ele>
				<time>2021-04-10T19:24:23.773Z</time>
			</trkpt>
			<trkpt lat="42.86534" lon="-1.517745">
				<ele>930</ele>
				<time>2021-04-10T19:24:33.961Z</time>
			</trkpt>
			<trkpt lat="42.865407" lon="-1.517655">
				<ele>930</ele>
				<time>2021-04-10T19:24:43.494Z</time>
			</trkpt>
			<trkpt lat="42.865455" lon="-1.517538">
				<ele>930</ele>
				<time>2021-04-10T19:24:53.404Z</time>
			</trkpt>
			<trkpt lat="42.865458" lon="-1.517532">
				<ele>930</ele>
				<time>2021-04-10T19:24:53.942Z</time>
			</trkpt>
			<trkpt lat="42.865467" lon="-1.517507">
				<ele>930</ele>
				<time>2021-04-10T19:24:56.005Z</time>
			</trkpt>
			<trkpt lat="42.865522" lon="-1.517408">
				<ele>930</ele>
				<time>2021-04-10T19:25:05.087Z</time>
			</trkpt>
			<trkpt lat="42.865542" lon="-1.517236">
				<ele>930</ele>
				<time>2021-04-10T19:25:17.772Z</time>
			</trkpt>
			<trkpt lat="42.865587" lon="-1.517163">
				<ele>930</ele>
				<time>2021-04-10T19:25:24.749Z</time>
			</trkpt>
			<trkpt lat="42.865662" lon="-1.517093">
				<ele>930</ele>
				<time>2021-04-10T19:25:34.012Z</time>
			</trkpt>
			<trkpt lat="42.865742" lon="-1.517022">
				<ele>930</ele>
				<time>2021-04-10T19:25:43.776Z</time>
			</trkpt>
			<trkpt lat="42.865785" lon="-1.516892">
				<ele>930</ele>
				<time>2021-04-10T19:25:54.218Z</time>
			</trkpt>
			<trkpt lat="42.865825" lon="-1.516778">
				<ele>930</ele>
				<time>2021-04-10T19:26:03.503Z</time>
			</trkpt>
			<trkpt lat="42.866275" lon="-1.516492">
				<ele>907</ele>
				<time>2021-04-10T19:26:53.516Z</time>
			</trkpt>
			<trkpt lat="42.86627" lon="-1.516488">
				<ele>907</ele>
				<time>2021-04-10T19:26:54.112Z</time>
			</trkpt>
			<trkpt lat="42.866268" lon="-1.516487">
				<ele>907</ele>
				<time>2021-04-10T19:26:54.324Z</time>
			</trkpt>
			<trkpt lat="42.866267" lon="-1.51649">
				<ele>907</ele>
				<time>2021-04-10T19:26:54.565Z</time>
			</trkpt>
			<trkpt lat="42.86628" lon="-1.516497">
				<ele>907</ele>
				<time>2021-04-10T19:26:55.96Z</time>
			</trkpt>
			<trkpt lat="42.866295" lon="-1.516467">
				<ele>907</ele>
				<time>2021-04-10T19:26:58.634Z</time>
			</trkpt>
			<trkpt lat="42.866342" lon="-1.516348">
				<ele>907</ele>
				<time>2021-04-10T19:27:08.55Z</time>
			</trkpt>
			<trkpt lat="42.866353" lon="-1.516308">
				<ele>907</ele>
				<time>2021-04-10T19:27:11.667Z</time>
			</trkpt>
			<trkpt lat="42.866352" lon="-1.516307">
				<ele>907</ele>
				<time>2021-04-10T19:27:11.791Z</time>
			</trkpt>
			<trkpt lat="42.866382" lon="-1.516263">
				<ele>907</ele>
				<time>2021-04-10T19:27:16.25Z</time>
			</trkpt>
			<trkpt lat="42.866383" lon="-1.51625">
				<ele>907</ele>
				<time>2021-04-10T19:27:17.194Z</time>
			</trkpt>
			<trkpt lat="42.866383" lon="-1.516252">
				<ele>907</ele>
				<time>2021-04-10T19:27:17.328Z</time>
			</trkpt>
			<trkpt lat="42.866382" lon="-1.51625">
				<ele>907</ele>
				<time>2021-04-10T19:27:17.495Z</time>
			</trkpt>
			<trkpt lat="42.866392" lon="-1.516142">
				<ele>907</ele>
				<time>2021-04-10T19:27:25.436Z</time>
			</trkpt>
			<trkpt lat="42.866372" lon="-1.516013">
				<ele>907</ele>
				<time>2021-04-10T19:27:35.012Z</time>
			</trkpt>
			<trkpt lat="42.866393" lon="-1.515892">
				<ele>907</ele>
				<time>2021-04-10T19:27:44.097Z</time>
			</trkpt>
			<trkpt lat="42.866442" lon="-1.515775">
				<ele>907</ele>
				<time>2021-04-10T19:27:54.055Z</time>
			</trkpt>
			<trkpt lat="42.866498" lon="-1.515663">
				<ele>907</ele>
				<time>2021-04-10T19:28:04.055Z</time>
			</trkpt>
			<trkpt lat="42.866523" lon="-1.515538">
				<ele>907</ele>
				<time>2021-04-10T19:28:13.504Z</time>
			</trkpt>
			<trkpt lat="42.866605" lon="-1.515463">
				<ele>907</ele>
				<time>2021-04-10T19:28:23.582Z</time>
			</trkpt>
			<trkpt lat="42.86664" lon="-1.515343">
				<ele>907</ele>
				<time>2021-04-10T19:28:33.019Z</time>
			</trkpt>
			<trkpt lat="42.866638" lon="-1.515217">
				<ele>907</ele>
				<time>2021-04-10T19:28:42.182Z</time>
			</trkpt>
			<trkpt lat="42.86657" lon="-1.515123">
				<ele>907</ele>
				<time>2021-04-10T19:28:51.969Z</time>
			</trkpt>
			<trkpt lat="42.866497" lon="-1.515028">
				<ele>907</ele>
				<time>2021-04-10T19:29:02.194Z</time>
			</trkpt>
			<trkpt lat="42.866475" lon="-1.514895">
				<ele>907</ele>
				<time>2021-04-10T19:29:12.177Z</time>
			</trkpt>
			<trkpt lat="42.866473" lon="-1.514892">
				<ele>907</ele>
				<time>2021-04-10T19:29:12.473Z</time>
			</trkpt>
			<trkpt lat="42.866473" lon="-1.514892">
				<ele>907</ele>
				<time>2021-04-10T19:29:12.473Z</time>
			</trkpt>
			<trkpt lat="42.866472" lon="-1.514892">
				<ele>907</ele>
				<time>2021-04-10T19:29:12.573Z</time>
			</trkpt>
			<trkpt lat="42.866472" lon="-1.514892">
				<ele>907</ele>
				<time>2021-04-10T19:29:12.573Z</time>
			</trkpt>
			<trkpt lat="42.866473" lon="-1.514892">
				<ele>907</ele>
				<time>2021-04-10T19:29:12.673Z</time>
			</trkpt>
			<trkpt lat="42.866465" lon="-1.514853">
				<ele>907</ele>
				<time>2021-04-10T19:29:15.665Z</time>
			</trkpt>
			<trkpt lat="42.866502" lon="-1.51474">
				<ele>907</ele>
				<time>2021-04-10T19:29:24.665Z</time>
			</trkpt>
			<trkpt lat="42.866513" lon="-1.514598">
				<ele>907</ele>
				<time>2021-04-10T19:29:35.055Z</time>
			</trkpt>
			<trkpt lat="42.866527" lon="-1.514472">
				<ele>905</ele>
				<time>2021-04-10T19:29:44.327Z</time>
			</trkpt>
			<trkpt lat="42.866552" lon="-1.514348">
				<ele>905</ele>
				<time>2021-04-10T19:29:53.662Z</time>
			</trkpt>
			<trkpt lat="42.866593" lon="-1.514223">
				<ele>905</ele>
				<time>2021-04-10T19:30:03.626Z</time>
			</trkpt>
			<trkpt lat="42.866597" lon="-1.514217">
				<ele>905</ele>
				<time>2021-04-10T19:30:04.207Z</time>
			</trkpt>
			<trkpt lat="42.866597" lon="-1.514218">
				<ele>905</ele>
				<time>2021-04-10T19:30:04.28Z</time>
			</trkpt>
			<trkpt lat="42.866595" lon="-1.51421">
				<ele>905</ele>
				<time>2021-04-10T19:30:04.904Z</time>
			</trkpt>
			<trkpt lat="42.866625" lon="-1.514107">
				<ele>905</ele>
				<time>2021-04-10T19:30:12.961Z</time>
			</trkpt>
			<trkpt lat="42.866648" lon="-1.513977">
				<ele>905</ele>
				<time>2021-04-10T19:30:22.773Z</time>
			</trkpt>
			<trkpt lat="42.866702" lon="-1.513857">
				<ele>977</ele>
				<time>2021-04-10T19:30:33.081Z</time>
			</trkpt>
			<trkpt lat="42.866732" lon="-1.513733">
				<ele>977</ele>
				<time>2021-04-10T19:30:42.729Z</time>
			</trkpt>
			<trkpt lat="42.866747" lon="-1.513607">
				<ele>977</ele>
				<time>2021-04-10T19:30:52.165Z</time>
			</trkpt>
			<trkpt lat="42.86681" lon="-1.513505">
				<ele>977</ele>
				<time>2021-04-10T19:31:01.865Z</time>
			</trkpt>
			<trkpt lat="42.866895" lon="-1.513463">
				<ele>977</ele>
				<time>2021-04-10T19:31:10.842Z</time>
			</trkpt>
			<trkpt lat="42.866963" lon="-1.51337">
				<ele>977</ele>
				<time>2021-04-10T19:31:20.384Z</time>
			</trkpt>
			<trkpt lat="42.867038" lon="-1.513293">
				<ele>977</ele>
				<time>2021-04-10T19:31:29.691Z</time>
			</trkpt>
			<trkpt lat="42.867078" lon="-1.513182">
				<ele>977</ele>
				<time>2021-04-10T19:31:38.721Z</time>
			</trkpt>
			<trkpt lat="42.867112" lon="-1.513063">
				<ele>977</ele>
				<time>2021-04-10T19:31:48.072Z</time>
			</trkpt>
			<trkpt lat="42.867188" lon="-1.512997">
				<ele>977</ele>
				<time>2021-04-10T19:31:57.02Z</time>
			</trkpt>
			<trkpt lat="42.86724" lon="-1.512888">
				<ele>977</ele>
				<time>2021-04-10T19:32:06.494Z</time>
			</trkpt>
			<trkpt lat="42.8673" lon="-1.512793">
				<ele>977</ele>
				<time>2021-04-10T19:32:15.6Z</time>
			</trkpt>
			<trkpt lat="42.86737" lon="-1.512705">
				<ele>977</ele>
				<time>2021-04-10T19:32:25.045Z</time>
			</trkpt>
			<trkpt lat="42.867423" lon="-1.512605">
				<ele>977</ele>
				<time>2021-04-10T19:32:34.013Z</time>
			</trkpt>
			<trkpt lat="42.867472" lon="-1.512497">
				<ele>944</ele>
				<time>2021-04-10T19:32:43.236Z</time>
			</trkpt>
			<trkpt lat="42.86752" lon="-1.512385">
				<ele>944</ele>
				<time>2021-04-10T19:32:52.659Z</time>
			</trkpt>
			<trkpt lat="42.867558" lon="-1.512268">
				<ele>944</ele>
				<time>2021-04-10T19:33:02.002Z</time>
			</trkpt>
			<trkpt lat="42.867573" lon="-1.51214">
				<ele>944</ele>
				<time>2021-04-10T19:33:11.465Z</time>
			</trkpt>
			<trkpt lat="42.867583" lon="-1.512012">
				<ele>944</ele>
				<time>2021-04-10T19:33:20.85Z</time>
			</trkpt>
			<trkpt lat="42.867595" lon="-1.511883">
				<ele>944</ele>
				<time>2021-04-10T19:33:30.34Z</time>
			</trkpt>
			<trkpt lat="42.867622" lon="-1.511757">
				<ele>944</ele>
				<time>2021-04-10T19:33:39.896Z</time>
			</trkpt>
			<trkpt lat="42.867632" lon="-1.511625">
				<ele>944</ele>
				<time>2021-04-10T19:33:49.572Z</time>
			</trkpt>
			<trkpt lat="42.867688" lon="-1.51152">
				<ele>944</ele>
				<time>2021-04-10T19:33:59.007Z</time>
			</trkpt>
			<trkpt lat="42.867723" lon="-1.5114">
				<ele>944</ele>
				<time>2021-04-10T19:34:08.405Z</time>
			</trkpt>
			<trkpt lat="42.867758" lon="-1.51127">
				<ele>944</ele>
				<time>2021-04-10T19:34:18.476Z</time>
			</trkpt>
			<trkpt lat="42.867807" lon="-1.511163">
				<ele>944</ele>
				<time>2021-04-10T19:34:27.651Z</time>
			</trkpt>
			<trkpt lat="42.8678" lon="-1.51103">
				<ele>944</ele>
				<time>2021-04-10T19:34:37.372Z</time>
			</trkpt>
			<trkpt lat="42.867823" lon="-1.510908">
				<ele>944</ele>
				<time>2021-04-10T19:34:46.537Z</time>
			</trkpt>
			<trkpt lat="42.867887" lon="-1.5108">
				<ele>944</ele>
				<time>2021-04-10T19:34:56.627Z</time>
			</trkpt>
			<trkpt lat="42.86789" lon="-1.510793">
				<ele>944</ele>
				<time>2021-04-10T19:34:57.213Z</time>
			</trkpt>
			<trkpt lat="42.867895" lon="-1.510697">
				<ele>944</ele>
				<time>2021-04-10T19:35:04.21Z</time>
			</trkpt>
			<trkpt lat="42.867863" lon="-1.510575">
				<ele>944</ele>
				<time>2021-04-10T19:35:13.671Z</time>
			</trkpt>
			<trkpt lat="42.867863" lon="-1.510572">
				<ele>944</ele>
				<time>2021-04-10T19:35:13.89Z</time>
			</trkpt>
			<trkpt lat="42.867865" lon="-1.510572">
				<ele>944</ele>
				<time>2021-04-10T19:35:14.09Z</time>
			</trkpt>
			<trkpt lat="42.867868" lon="-1.51058">
				<ele>944</ele>
				<time>2021-04-10T19:35:14.752Z</time>
			</trkpt>
			<trkpt lat="42.867855" lon="-1.510517">
				<ele>944</ele>
				<time>2021-04-10T19:35:19.526Z</time>
			</trkpt>
			<trkpt lat="42.867867" lon="-1.510395">
				<ele>929</ele>
				<time>2021-04-10T19:35:28.485Z</time>
			</trkpt>
			<trkpt lat="42.867867" lon="-1.510385">
				<ele>929</ele>
				<time>2021-04-10T19:35:29.219Z</time>
			</trkpt>
			<trkpt lat="42.867913" lon="-1.510293">
				<ele>929</ele>
				<time>2021-04-10T19:35:37.309Z</time>
			</trkpt>
			<trkpt lat="42.86796" lon="-1.510183">
				<ele>929</ele>
				<time>2021-04-10T19:35:46.571Z</time>
			</trkpt>
			<trkpt lat="42.867955" lon="-1.510173">
				<ele>929</ele>
				<time>2021-04-10T19:35:47.447Z</time>
			</trkpt>
			<trkpt lat="42.867957" lon="-1.510177">
				<ele>929</ele>
				<time>2021-04-10T19:35:47.801Z</time>
			</trkpt>
			<trkpt lat="42.867963" lon="-1.510183">
				<ele>929</ele>
				<time>2021-04-10T19:35:48.537Z</time>
			</trkpt>
			<trkpt lat="42.867963" lon="-1.51018">
				<ele>929</ele>
				<time>2021-04-10T19:35:48.744Z</time>
			</trkpt>
			<trkpt lat="42.867965" lon="-1.51018">
				<ele>929</ele>
				<time>2021-04-10T19:35:48.944Z</time>
			</trkpt>
			<trkpt lat="42.867965" lon="-1.51018">
				<ele>929</ele>
				<time>2021-04-10T19:35:48.944Z</time>
			</trkpt>
			<trkpt lat="42.867967" lon="-1.51018">
				<ele>929</ele>
				<time>2021-04-10T19:35:49.144Z</time>
			</trkpt>
			<trkpt lat="42.867963" lon="-1.51018">
				<ele>929</ele>
				<time>2021-04-10T19:35:49.543Z</time>
			</trkpt>
			<trkpt lat="42.867963" lon="-1.510177">
				<ele>929</ele>
				<time>2021-04-10T19:35:49.763Z</time>
			</trkpt>
			<trkpt lat="42.867963" lon="-1.510178">
				<ele>929</ele>
				<time>2021-04-10T19:35:49.836Z</time>
			</trkpt>
			<trkpt lat="42.867968" lon="-1.510172">
				<ele>929</ele>
				<time>2021-04-10T19:35:50.5Z</time>
			</trkpt>
			<trkpt lat="42.867967" lon="-1.510172">
				<ele>929</ele>
				<time>2021-04-10T19:35:50.6Z</time>
			</trkpt>
			<trkpt lat="42.867968" lon="-1.510175">
				<ele>929</ele>
				<time>2021-04-10T19:35:50.841Z</time>
			</trkpt>
			<trkpt lat="42.867977" lon="-1.510157">
				<ele>929</ele>
				<time>2021-04-10T19:35:52.426Z</time>
			</trkpt>
			<trkpt lat="42.867978" lon="-1.510027">
				<ele>929</ele>
				<time>2021-04-10T19:36:01.892Z</time>
			</trkpt>
			<trkpt lat="42.868042" lon="-1.509928">
				<ele>929</ele>
				<time>2021-04-10T19:36:11.492Z</time>
			</trkpt>
			<trkpt lat="42.868043" lon="-1.509788">
				<ele>929</ele>
				<time>2021-04-10T19:36:21.662Z</time>
			</trkpt>
			<trkpt lat="42.868098" lon="-1.509687">
				<ele>929</ele>
				<time>2021-04-10T19:36:30.816Z</time>
			</trkpt>
			<trkpt lat="42.868095" lon="-1.509439">
				<ele>929</ele>
				<time>2021-04-10T19:36:48.822Z</time>
			</trkpt>
			<trkpt lat="42.868073" lon="-1.509355">
				<ele>929</ele>
				<time>2021-04-10T19:36:55.325Z</time>
			</trkpt>
			<trkpt lat="42.86812" lon="-1.509228">
				<ele>929</ele>
				<time>2021-04-10T19:37:05.688Z</time>
			</trkpt>
			<trkpt lat="42.868153" lon="-1.509113">
				<ele>929</ele>
				<time>2021-04-10T19:37:14.726Z</time>
			</trkpt>
			<trkpt lat="42.86818" lon="-1.508982">
				<ele>929</ele>
				<time>2021-04-10T19:37:24.756Z</time>
			</trkpt>
			<trkpt lat="42.868245" lon="-1.508878">
				<ele>929</ele>
				<time>2021-04-10T19:37:34.934Z</time>
			</trkpt>
			<trkpt lat="42.868287" lon="-1.508742">
				<ele>929</ele>
				<time>2021-04-10T19:37:45.889Z</time>
			</trkpt>
			<trkpt lat="42.868307" lon="-1.508608">
				<ele>929</ele>
				<time>2021-04-10T19:37:56.038Z</time>
			</trkpt>
			<trkpt lat="42.86832" lon="-1.508475">
				<ele>929</ele>
				<time>2021-04-10T19:38:05.946Z</time>
			</trkpt>
			<trkpt lat="42.868327" lon="-1.508347">
				<ele>929</ele>
				<time>2021-04-10T19:38:15.426Z</time>
			</trkpt>
			<trkpt lat="42.868322" lon="-1.508208">
				<ele>927</ele>
				<time>2021-04-10T19:38:25.567Z</time>
			</trkpt>
			<trkpt lat="42.868322" lon="-1.508078">
				<ele>927</ele>
				<time>2021-04-10T19:38:35.042Z</time>
			</trkpt>
			<trkpt lat="42.868302" lon="-1.507953">
				<ele>927</ele>
				<time>2021-04-10T19:38:44.344Z</time>
			</trkpt>
			<trkpt lat="42.868287" lon="-1.507815">
				<ele>927</ele>
				<time>2021-04-10T19:38:54.483Z</time>
			</trkpt>
			<trkpt lat="42.868255" lon="-1.507688">
				<ele>927</ele>
				<time>2021-04-10T19:39:04.245Z</time>
			</trkpt>
			<trkpt lat="42.868253" lon="-1.507688">
				<ele>927</ele>
				<time>2021-04-10T19:39:04.444Z</time>
			</trkpt>
			<trkpt lat="42.868253" lon="-1.507688">
				<ele>927</ele>
				<time>2021-04-10T19:39:04.444Z</time>
			</trkpt>
			<trkpt lat="42.868252" lon="-1.507688">
				<ele>927</ele>
				<time>2021-04-10T19:39:04.578Z</time>
			</trkpt>
			<trkpt lat="42.868252" lon="-1.507688">
				<ele>927</ele>
				<time>2021-04-10T19:39:04.578Z</time>
			</trkpt>
			<trkpt lat="42.868253" lon="-1.507688">
				<ele>927</ele>
				<time>2021-04-10T19:39:04.712Z</time>
			</trkpt>
			<trkpt lat="42.868218" lon="-1.507587">
				<ele>927</ele>
				<time>2021-04-10T19:39:12.831Z</time>
			</trkpt>
			<trkpt lat="42.868177" lon="-1.507475">
				<ele>927</ele>
				<time>2021-04-10T19:39:21.957Z</time>
			</trkpt>
			<trkpt lat="42.868152" lon="-1.507347">
				<ele>927</ele>
				<time>2021-04-10T19:39:31.658Z</time>
			</trkpt>
			<trkpt lat="42.868127" lon="-1.50721">
				<ele>927</ele>
				<time>2021-04-10T19:39:42.009Z</time>
			</trkpt>
			<trkpt lat="42.868107" lon="-1.507077">
				<ele>927</ele>
				<time>2021-04-10T19:39:51.95Z</time>
			</trkpt>
			<trkpt lat="42.868112" lon="-1.507077">
				<ele>927</ele>
				<time>2021-04-10T19:39:52.457Z</time>
			</trkpt>
			<trkpt lat="42.868135" lon="-1.507028">
				<ele>927</ele>
				<time>2021-04-10T19:39:56.699Z</time>
			</trkpt>
			<trkpt lat="42.868148" lon="-1.506877">
				<ele>927</ele>
				<time>2021-04-10T19:40:07.752Z</time>
			</trkpt>
			<trkpt lat="42.868182" lon="-1.506742">
				<ele>927</ele>
				<time>2021-04-10T19:40:18.129Z</time>
			</trkpt>
			<trkpt lat="42.868187" lon="-1.506743">
				<ele>927</ele>
				<time>2021-04-10T19:40:18.642Z</time>
			</trkpt>
			<trkpt lat="42.868223" lon="-1.506742">
				<ele>927</ele>
				<time>2021-04-10T19:40:22.37Z</time>
			</trkpt>
			<trkpt lat="42.868315" lon="-1.506715">
				<ele>927</ele>
				<time>2021-04-10T19:40:32.083Z</time>
			</trkpt>
			<trkpt lat="42.868403" lon="-1.506687">
				<ele>927</ele>
				<time>2021-04-10T19:40:41.053Z</time>
			</trkpt>
			<trkpt lat="42.868513" lon="-1.506673">
				<ele>927</ele>
				<time>2021-04-10T19:40:52.001Z</time>
			</trkpt>
			<trkpt lat="42.868607" lon="-1.506673">
				<ele>927</ele>
				<time>2021-04-10T19:41:01.324Z</time>
			</trkpt>
			<trkpt lat="42.8687" lon="-1.506662">
				<ele>927</ele>
				<time>2021-04-10T19:41:10.567Z</time>
			</trkpt>
			<trkpt lat="42.868762" lon="-1.506608">
				<ele>975</ele>
				<time>2021-04-10T19:41:17.88Z</time>
			</trkpt>
			<trkpt lat="42.86882" lon="-1.506547">
				<ele>975</ele>
				<time>2021-04-10T19:41:25.182Z</time>
			</trkpt>
			<trkpt lat="42.868937" lon="-1.506513">
				<ele>975</ele>
				<time>2021-04-10T19:41:37.073Z</time>
			</trkpt>
			<trkpt lat="42.868973" lon="-1.506405">
				<ele>975</ele>
				<time>2021-04-10T19:41:45.854Z</time>
			</trkpt>
			<trkpt lat="42.868978" lon="-1.506408">
				<ele>975</ele>
				<time>2021-04-10T19:41:46.399Z</time>
			</trkpt>
			<trkpt lat="42.869023" lon="-1.506357">
				<ele>975</ele>
				<time>2021-04-10T19:41:52.261Z</time>
			</trkpt>
			<trkpt lat="42.869092" lon="-1.506255">
				<ele>975</ele>
				<time>2021-04-10T19:42:02.595Z</time>
			</trkpt>
			<trkpt lat="42.869177" lon="-1.506402">
				<ele>975</ele>
				<time>2021-04-10T19:42:16.309Z</time>
			</trkpt>
			<trkpt lat="42.869192" lon="-1.506538">
				<ele>975</ele>
				<time>2021-04-10T19:42:26.598Z</time>
			</trkpt>
			<trkpt lat="42.869223" lon="-1.506657">
				<ele>975</ele>
				<time>2021-04-10T19:42:36.166Z</time>
			</trkpt>
			<trkpt lat="42.86924" lon="-1.506795">
				<ele>975</ele>
				<time>2021-04-10T19:42:46.524Z</time>
			</trkpt>
			<trkpt lat="42.869197" lon="-1.506912">
				<ele>975</ele>
				<time>2021-04-10T19:42:56.076Z</time>
			</trkpt>
			<trkpt lat="42.869175" lon="-1.507035">
				<ele>975</ele>
				<time>2021-04-10T19:43:05.366Z</time>
			</trkpt>
			<trkpt lat="42.869158" lon="-1.507168">
				<ele>975</ele>
				<time>2021-04-10T19:43:15.277Z</time>
			</trkpt>
			<trkpt lat="42.869085" lon="-1.507257">
				<ele>975</ele>
				<time>2021-04-10T19:43:24.983Z</time>
			</trkpt>
			<trkpt lat="42.869078" lon="-1.507307">
				<ele>975</ele>
				<time>2021-04-10T19:43:28.713Z</time>
			</trkpt>
			<trkpt lat="42.869081" lon="-1.507383">
				<ele>975</ele>
				<time>2021-04-10T19:43:34.302Z</time>
			</trkpt>
			<trkpt lat="42.869102" lon="-1.507437">
				<ele>975</ele>
				<time>2021-04-10T19:43:38.819Z</time>
			</trkpt>
			<trkpt lat="42.869178" lon="-1.507357">
				<ele>975</ele>
				<time>2021-04-10T19:43:48.341Z</time>
			</trkpt>
			<trkpt lat="42.869238" lon="-1.507265">
				<ele>975</ele>
				<time>2021-04-10T19:43:57.29Z</time>
			</trkpt>
			<trkpt lat="42.86931" lon="-1.507158">
				<ele>975</ele>
				<time>2021-04-10T19:44:07.834Z</time>
			</trkpt>
			<trkpt lat="42.869358" lon="-1.507045">
				<ele>975</ele>
				<time>2021-04-10T19:44:17.349Z</time>
			</trkpt>
			<trkpt lat="42.869408" lon="-1.506933">
				<ele>975</ele>
				<time>2021-04-10T19:44:26.914Z</time>
			</trkpt>
			<trkpt lat="42.869512" lon="-1.506898">
				<ele>975</ele>
				<time>2021-04-10T19:44:37.587Z</time>
			</trkpt>
			<trkpt lat="42.869533" lon="-1.506775">
				<ele>975</ele>
				<time>2021-04-10T19:44:46.878Z</time>
			</trkpt>
			<trkpt lat="42.869543" lon="-1.506652">
				<ele>975</ele>
				<time>2021-04-10T19:44:56.072Z</time>
			</trkpt>
			<trkpt lat="42.869555" lon="-1.506517">
				<ele>975</ele>
				<time>2021-04-10T19:45:06.142Z</time>
			</trkpt>
			<trkpt lat="42.869532" lon="-1.506383">
				<ele>975</ele>
				<time>2021-04-10T19:45:16.45Z</time>
			</trkpt>
			<trkpt lat="42.869613" lon="-1.50631">
				<ele>975</ele>
				<time>2021-04-10T19:45:26.087Z</time>
			</trkpt>
			<trkpt lat="42.869682" lon="-1.506217">
				<ele>1001</ele>
				<time>2021-04-10T19:45:35.704Z</time>
			</trkpt>
			<trkpt lat="42.86974" lon="-1.506163">
				<ele>1001</ele>
				<time>2021-04-10T19:45:42.662Z</time>
			</trkpt>
			<trkpt lat="42.869737" lon="-1.506148">
				<ele>1001</ele>
				<time>2021-04-10T19:45:43.818Z</time>
			</trkpt>
			<trkpt lat="42.869705" lon="-1.506025">
				<ele>1001</ele>
				<time>2021-04-10T19:45:53.652Z</time>
			</trkpt>
			<trkpt lat="42.869752" lon="-1.50592">
				<ele>1001</ele>
				<time>2021-04-10T19:46:02.645Z</time>
			</trkpt>
			<trkpt lat="42.869842" lon="-1.505885">
				<ele>1001</ele>
				<time>2021-04-10T19:46:11.959Z</time>
			</trkpt>
			<trkpt lat="42.86989" lon="-1.505778">
				<ele>1001</ele>
				<time>2021-04-10T19:46:21.198Z</time>
			</trkpt>
			<trkpt lat="42.869915" lon="-1.50566">
				<ele>1001</ele>
				<time>2021-04-10T19:46:30.623Z</time>
			</trkpt>
			<trkpt lat="42.870002" lon="-1.505623">
				<ele>1001</ele>
				<time>2021-04-10T19:46:39.657Z</time>
			</trkpt>
			<trkpt lat="42.869992" lon="-1.505487">
				<ele>1001</ele>
				<time>2021-04-10T19:46:50.344Z</time>
			</trkpt>
			<trkpt lat="42.870017" lon="-1.505353">
				<ele>1001</ele>
				<time>2021-04-10T19:47:01.269Z</time>
			</trkpt>
			<trkpt lat="42.870008" lon="-1.505213">
				<ele>1001</ele>
				<time>2021-04-10T19:47:12.185Z</time>
			</trkpt>
			<trkpt lat="42.869983" lon="-1.505047">
				<ele>1001</ele>
				<time>2021-04-10T19:47:25.519Z</time>
			</trkpt>
			<trkpt lat="42.869958" lon="-1.504923">
				<ele>1001</ele>
				<time>2021-04-10T19:47:35.339Z</time>
			</trkpt>
			<trkpt lat="42.87005" lon="-1.50485">
				<ele>1001</ele>
				<time>2021-04-10T19:47:45.919Z</time>
			</trkpt>
			<trkpt lat="42.870288" lon="-1.504732">
				<ele>1001</ele>
				<time>2021-04-10T19:48:11.108Z</time>
			</trkpt>
			<trkpt lat="42.870388" lon="-1.504725">
				<ele>1001</ele>
				<time>2021-04-10T19:48:21.043Z</time>
			</trkpt>
			<trkpt lat="42.87047" lon="-1.504662">
				<ele>1001</ele>
				<time>2021-04-10T19:48:30.407Z</time>
			</trkpt>
			<trkpt lat="42.870562" lon="-1.504637">
				<ele>1001</ele>
				<time>2021-04-10T19:48:39.712Z</time>
			</trkpt>
			<trkpt lat="42.870588" lon="-1.504513">
				<ele>1001</ele>
				<time>2021-04-10T19:48:49.159Z</time>
			</trkpt>
			<trkpt lat="42.870677" lon="-1.50449">
				<ele>1001</ele>
				<time>2021-04-10T19:48:58.142Z</time>
			</trkpt>
			<trkpt lat="42.870678" lon="-1.504363">
				<ele>1001</ele>
				<time>2021-04-10T19:49:07.454Z</time>
			</trkpt>
			<trkpt lat="42.870672" lon="-1.504238">
				<ele>1001</ele>
				<time>2021-04-10T19:49:16.638Z</time>
			</trkpt>
			<trkpt lat="42.870688" lon="-1.504112">
				<ele>1026</ele>
				<time>2021-04-10T19:49:25.921Z</time>
			</trkpt>
			<trkpt lat="42.870668" lon="-1.503987">
				<ele>1026</ele>
				<time>2021-04-10T19:49:35.393Z</time>
			</trkpt>
			<trkpt lat="42.870602" lon="-1.503927">
				<ele>1026</ele>
				<time>2021-04-10T19:49:43.271Z</time>
			</trkpt>
			<trkpt lat="42.870578" lon="-1.503894">
				<ele>1026</ele>
				<time>2021-04-10T19:49:46.669Z</time>
			</trkpt>
			<trkpt lat="42.870544" lon="-1.503873">
				<ele>1026</ele>
				<time>2021-04-10T19:49:50.373Z</time>
			</trkpt>
			<trkpt lat="42.87052" lon="-1.503865">
				<ele>1026</ele>
				<time>2021-04-10T19:49:52.82Z</time>
			</trkpt>
			<trkpt lat="42.870488" lon="-1.503875">
				<ele>1026</ele>
				<time>2021-04-10T19:49:56.116Z</time>
			</trkpt>
			<trkpt lat="42.870442" lon="-1.503865">
				<ele>1026</ele>
				<time>2021-04-10T19:50:00.737Z</time>
			</trkpt>
			<trkpt lat="42.870422" lon="-1.503847">
				<ele>1026</ele>
				<time>2021-04-10T19:50:03.12Z</time>
			</trkpt>
			<trkpt lat="42.870395" lon="-1.503855">
				<ele>1026</ele>
				<time>2021-04-10T19:50:05.871Z</time>
			</trkpt>
			<trkpt lat="42.870353" lon="-1.503846">
				<ele>1026</ele>
				<time>2021-04-10T19:50:10.101Z</time>
			</trkpt>
			<trkpt lat="42.870323" lon="-1.503828">
				<ele>1026</ele>
				<time>2021-04-10T19:50:13.353Z</time>
			</trkpt>
			<trkpt lat="42.870302" lon="-1.503787">
				<ele>1026</ele>
				<time>2021-04-10T19:50:16.981Z</time>
			</trkpt>
			<trkpt lat="42.87027" lon="-1.503763">
				<ele>1026</ele>
				<time>2021-04-10T19:50:20.604Z</time>
			</trkpt>
			<trkpt lat="42.870248" lon="-1.503748">
				<ele>1026</ele>
				<time>2021-04-10T19:50:23.06Z</time>
			</trkpt>
			<trkpt lat="42.870228" lon="-1.503702">
				<ele>1026</ele>
				<time>2021-04-10T19:50:26.941Z</time>
			</trkpt>
			<trkpt lat="42.870192" lon="-1.503677">
				<ele>1026</ele>
				<time>2021-04-10T19:50:30.955Z</time>
			</trkpt>
			<trkpt lat="42.870157" lon="-1.503657">
				<ele>1026</ele>
				<time>2021-04-10T19:50:34.714Z</time>
			</trkpt>
			<trkpt lat="42.870125" lon="-1.503669">
				<ele>1026</ele>
				<time>2021-04-10T19:50:38.051Z</time>
			</trkpt>
			<trkpt lat="42.870096" lon="-1.503638">
				<ele>1026</ele>
				<time>2021-04-10T19:50:41.71Z</time>
			</trkpt>
			<trkpt lat="42.870067" lon="-1.503607">
				<ele>1026</ele>
				<time>2021-04-10T19:50:45.365Z</time>
			</trkpt>
			<trkpt lat="42.870073" lon="-1.503578">
				<ele>1026</ele>
				<time>2021-04-10T19:50:47.572Z</time>
			</trkpt>
			<trkpt lat="42.870041" lon="-1.503516">
				<ele>1026</ele>
				<time>2021-04-10T19:50:53.084Z</time>
			</trkpt>
			<trkpt lat="42.870023" lon="-1.503492">
				<ele>1026</ele>
				<time>2021-04-10T19:50:55.596Z</time>
			</trkpt>
			<trkpt lat="42.86999" lon="-1.50344">
				<ele>1026</ele>
				<time>2021-04-10T19:51:00.597Z</time>
			</trkpt>
			<trkpt lat="42.869972" lon="-1.503425">
				<ele>1026</ele>
				<time>2021-04-10T19:51:02.687Z</time>
			</trkpt>
			<trkpt lat="42.869951" lon="-1.503434">
				<ele>1026</ele>
				<time>2021-04-10T19:51:04.894Z</time>
			</trkpt>
			<trkpt lat="42.86993" lon="-1.503444">
				<ele>1026</ele>
				<time>2021-04-10T19:51:07.116Z</time>
			</trkpt>
			<trkpt lat="42.869914" lon="-1.503465">
				<ele>1026</ele>
				<time>2021-04-10T19:51:09.336Z</time>
			</trkpt>
			<trkpt lat="42.869893" lon="-1.503493">
				<ele>1026</ele>
				<time>2021-04-10T19:51:12.275Z</time>
			</trkpt>
			<trkpt lat="42.869859" lon="-1.503468">
				<ele>1026</ele>
				<time>2021-04-10T19:51:16.115Z</time>
			</trkpt>
			<trkpt lat="42.869828" lon="-1.503471">
				<ele>1026</ele>
				<time>2021-04-10T19:51:19.222Z</time>
			</trkpt>
			<trkpt lat="42.869781" lon="-1.503461">
				<ele>1026</ele>
				<time>2021-04-10T19:51:23.96Z</time>
			</trkpt>
			<trkpt lat="42.869758" lon="-1.503426">
				<ele>1026</ele>
				<time>2021-04-10T19:51:27.391Z</time>
			</trkpt>
			<trkpt lat="42.869733" lon="-1.503474">
				<ele>1026</ele>
				<time>2021-04-10T19:51:31.696Z</time>
			</trkpt>
			<trkpt lat="42.869739" lon="-1.503522">
				<ele>1026</ele>
				<time>2021-04-10T19:51:35.23Z</time>
			</trkpt>
			<trkpt lat="42.869751" lon="-1.503564">
				<ele>1026</ele>
				<time>2021-04-10T19:51:38.513Z</time>
			</trkpt>
			<trkpt lat="42.869761" lon="-1.503612">
				<ele>1026</ele>
				<time>2021-04-10T19:51:42.131Z</time>
			</trkpt>
			<trkpt lat="42.869732" lon="-1.503582">
				<ele>1026</ele>
				<time>2021-04-10T19:51:45.746Z</time>
			</trkpt>
			<trkpt lat="42.869715" lon="-1.503563">
				<ele>1026</ele>
				<time>2021-04-10T19:51:47.921Z</time>
			</trkpt>
			<trkpt lat="42.869665" lon="-1.503546">
				<ele>1026</ele>
				<time>2021-04-10T19:51:53.056Z</time>
			</trkpt>
			<trkpt lat="42.869665" lon="-1.503546">
				<ele>1026</ele>
				<time>2021-04-10T19:51:53.056Z</time>
			</trkpt>
		</trkseg>
	</trk>
</gpx>
